createdAt,value
2023-05-09T00:00:47.755Z,9
2023-05-09T00:03:19.597Z,12
2023-05-09T00:05:50.572Z,10
2023-05-09T00:08:21.508Z,12
2023-05-09T00:10:51.982Z,9
2023-05-09T00:13:22.704Z,16
2023-05-09T00:15:53.395Z,12
2023-05-09T00:18:24.134Z,12
2023-05-09T00:20:55.400Z,13
2023-05-09T00:23:26.270Z,12
2023-05-09T00:25:57.426Z,12
2023-05-09T00:28:28.344Z,20
2023-05-09T00:30:59.159Z,12
2023-05-09T00:33:29.847Z,8
2023-05-09T00:36:01.026Z,12
2023-05-09T00:38:31.884Z,12
2023-05-09T00:41:03.168Z,16
2023-05-09T00:43:33.633Z,12
2023-05-09T00:46:04.115Z,14
2023-05-09T00:48:34.816Z,16
2023-05-09T00:51:05.859Z,14
2023-05-09T00:53:36.580Z,16
2023-05-09T00:56:07.389Z,12
2023-05-09T00:58:38.110Z,9
2023-05-09T01:01:09.236Z,12
2023-05-09T01:03:40.022Z,17
2023-05-09T01:06:11.178Z,16
2023-05-09T01:08:42.310Z,15
2023-05-09T01:11:13.483Z,15
2023-05-09T01:13:44.096Z,12
2023-05-09T01:16:14.966Z,16
2023-05-09T01:18:46.290Z,11
2023-05-09T01:21:17.264Z,16
2023-05-09T01:23:48.131Z,16
2023-05-09T01:26:18.742Z,16
2023-05-09T01:28:49.668Z,16
2023-05-09T01:31:20.801Z,16
2023-05-09T01:33:51.660Z,12
2023-05-09T01:36:22.477Z,16
2023-05-09T01:38:53.669Z,12
2023-05-09T01:41:24.800Z,19
2023-05-09T01:43:55.869Z,16
2023-05-09T01:46:30.700Z,16
2023-05-09T01:49:01.730Z,12
2023-05-09T01:51:32.452Z,17
2023-05-09T01:54:04.165Z,20
2023-05-09T01:56:39.281Z,15
2023-05-09T01:59:10.776Z,13
2023-05-09T02:01:41.931Z,16
2023-05-09T02:04:12.640Z,16
2023-05-09T02:06:43.222Z,16
2023-05-09T02:09:14.386Z,14
2023-05-09T02:11:45.213Z,20
2023-05-09T02:14:15.613Z,16
2023-05-09T02:16:46.703Z,16
2023-05-09T02:19:17.586Z,12
2023-05-09T02:21:48.388Z,17
2023-05-09T02:24:19.772Z,16
2023-05-09T02:26:51.101Z,16
2023-05-09T02:29:22.025Z,16
2023-05-09T02:31:52.998Z,12
2023-05-09T02:34:23.851Z,12
2023-05-09T02:36:54.835Z,13
2023-05-09T02:39:25.795Z,16
2023-05-09T02:41:56.277Z,12
2023-05-09T02:44:26.949Z,19
2023-05-09T02:46:57.743Z,12
2023-05-09T02:49:32.212Z,16
2023-05-09T02:51:59.274Z,16
2023-05-09T02:54:30.112Z,12
2023-05-09T02:57:00.789Z,16
2023-05-09T02:59:31.609Z,16
2023-05-09T03:02:02.400Z,16
2023-05-09T03:04:33.599Z,13
2023-05-09T03:07:04.670Z,20
2023-05-09T03:09:35.581Z,16
2023-05-09T03:12:06.602Z,15
2023-05-09T03:14:37.127Z,20
2023-05-09T03:17:08.081Z,16
2023-05-09T03:19:39.299Z,16
2023-05-09T03:22:10.397Z,20
2023-05-09T03:24:40.721Z,17
2023-05-09T03:27:11.489Z,16
2023-05-09T03:29:41.905Z,17
2023-05-09T03:32:14.632Z,16
2023-05-09T03:34:43.575Z,16
2023-05-09T03:37:13.988Z,16
2023-05-09T03:39:44.952Z,13
2023-05-09T03:42:16.238Z,12
2023-05-09T03:44:46.677Z,12
2023-05-09T03:47:17.663Z,16
2023-05-09T03:49:48.716Z,16
2023-05-09T03:52:19.506Z,20
2023-05-09T03:54:50.412Z,16
2023-05-09T03:57:21.052Z,16
2023-05-09T03:59:51.487Z,16
2023-05-09T04:02:22.334Z,15
2023-05-09T04:04:53.572Z,17
2023-05-09T04:07:24.724Z,16
2023-05-09T04:09:55.707Z,15
2023-05-09T04:12:26.798Z,13
2023-05-09T04:14:57.211Z,16
2023-05-09T04:17:28.434Z,16
2023-05-09T04:19:59.448Z,16
2023-05-09T04:22:30.021Z,20
2023-05-09T04:25:00.756Z,17
2023-05-09T04:27:30.809Z,20
2023-05-09T04:30:01.396Z,19
2023-05-09T04:32:32.110Z,22
2023-05-09T04:35:02.957Z,34
2023-05-09T04:37:33.953Z,20
2023-05-09T04:40:04.927Z,16
2023-05-09T04:42:35.570Z,29
2023-05-09T04:45:06.417Z,20
2023-05-09T04:47:37.257Z,20
2023-05-09T04:50:08.789Z,20
2023-05-09T04:52:40.052Z,16
2023-05-09T04:55:10.820Z,16
2023-05-09T04:57:41.502Z,20
2023-05-09T05:00:12.120Z,19
2023-05-09T05:02:42.788Z,16
2023-05-09T05:05:12.929Z,20
2023-05-09T05:07:43.971Z,15
2023-05-09T05:10:14.887Z,16
2023-05-09T05:12:45.880Z,16
2023-05-09T05:15:17.506Z,16
2023-05-09T05:17:48.551Z,15
2023-05-09T05:20:19.499Z,16
2023-05-09T05:22:50.480Z,16
2023-05-09T05:25:19.492Z,16
2023-05-09T05:27:49.708Z,20
2023-05-09T05:30:20.193Z,17
2023-05-09T05:32:50.683Z,16
2023-05-09T05:35:22.754Z,19
2023-05-09T05:37:53.581Z,17
2023-05-09T05:40:24.222Z,17
2023-05-09T05:42:54.766Z,20
2023-05-09T05:45:25.151Z,20
2023-05-09T05:47:55.588Z,19
2023-05-09T05:50:26.293Z,20
2023-05-09T05:52:56.904Z,23
2023-05-09T05:55:29.109Z,24
2023-05-09T05:57:58.800Z,23
2023-05-09T06:00:29.388Z,24
2023-05-09T06:02:58.966Z,22
2023-05-09T06:05:29.527Z,24
2023-05-09T06:08:00.367Z,25
2023-05-09T06:10:32.237Z,20
2023-05-09T06:13:02.914Z,24
2023-05-09T06:15:37.119Z,24
2023-05-09T06:18:07.551Z,25
2023-05-09T06:20:37.843Z,23
2023-05-09T06:23:08.319Z,24
2023-05-09T06:25:38.862Z,28
2023-05-09T06:28:09.437Z,28
2023-05-09T06:30:40.668Z,28
2023-05-09T06:33:10.985Z,29
2023-05-09T06:35:41.470Z,24
2023-05-09T06:38:12.314Z,25
2023-05-09T06:40:42.898Z,24
2023-05-09T06:43:13.311Z,25
2023-05-09T06:45:43.948Z,31
2023-05-09T06:48:18.652Z,28
2023-05-09T06:50:49.110Z,31
2023-05-09T06:53:19.776Z,32
2023-05-09T06:55:50.498Z,31
2023-05-09T06:58:20.949Z,32
2023-05-09T07:00:51.274Z,30
2023-05-09T07:03:22.188Z,34
2023-05-09T07:05:54.877Z,32
2023-05-09T07:08:27.097Z,35
2023-05-09T07:11:06.348Z,40
2023-05-09T07:13:36.454Z,41
2023-05-09T07:16:11.032Z,44
2023-05-09T07:18:46.524Z,56
2023-05-09T07:21:17.632Z,32
2023-05-09T07:23:49.127Z,33
2023-05-09T07:26:19.532Z,35
2023-05-09T07:28:50.049Z,36
2023-05-09T07:31:20.448Z,36
2023-05-09T07:33:50.898Z,52
2023-05-09T07:36:20.996Z,43
2023-05-09T07:38:51.597Z,36
2023-05-09T07:41:22.521Z,32
2023-05-09T07:43:53.023Z,25
2023-05-09T07:46:23.332Z,29
2023-05-09T07:48:56.091Z,28
2023-05-09T07:51:28.198Z,32
2023-05-09T07:53:59.340Z,29
2023-05-09T07:56:34.962Z,28
2023-05-09T07:59:05.034Z,29
2023-05-09T08:01:35.800Z,28
2023-05-09T08:04:06.622Z,24
2023-05-09T08:06:46.431Z,26
2023-05-09T08:09:17.802Z,22
2023-05-09T08:11:48.802Z,25
2023-05-09T08:14:19.588Z,27
2023-05-09T08:16:50.730Z,31
2023-05-09T08:19:20.834Z,28
2023-05-09T08:22:03.130Z,32
2023-05-09T08:24:33.597Z,32
2023-05-09T08:27:03.863Z,31
2023-05-09T08:29:33.963Z,32
2023-05-09T08:32:08.351Z,23
2023-05-09T08:34:39.014Z,24
2023-05-09T08:37:11.872Z,30
2023-05-09T08:39:50.016Z,28
2023-05-09T08:42:19.878Z,24
2023-05-09T08:44:50.513Z,25
2023-05-09T08:47:23.487Z,24
2023-05-09T08:49:55.273Z,28
2023-05-09T08:52:26.674Z,24
2023-05-09T08:54:57.485Z,24
2023-05-09T08:57:27.884Z,21
2023-05-09T08:59:58.619Z,28
2023-05-09T09:02:30.352Z,28
2023-05-09T09:05:02.925Z,27
2023-05-09T09:07:33.706Z,28
2023-05-09T09:10:13.536Z,24
2023-05-09T09:12:43.894Z,25
2023-05-09T09:15:17.023Z,20
2023-05-09T09:17:47.208Z,24
2023-05-09T09:20:24.212Z,21
2023-05-09T09:22:54.129Z,20
2023-05-09T09:25:25.573Z,24
2023-05-09T09:27:55.798Z,28
2023-05-09T09:30:26.296Z,24
2023-05-09T09:32:56.196Z,22
2023-05-09T09:35:26.343Z,24
2023-05-09T09:37:57.887Z,23
2023-05-09T09:40:27.332Z,24
2023-05-09T09:43:02.214Z,28
2023-05-09T09:45:37.624Z,21
2023-05-09T09:48:10.097Z,26
2023-05-09T09:50:46.455Z,24
2023-05-09T09:53:25.733Z,19
2023-05-09T09:55:56.778Z,20
2023-05-09T09:58:27.859Z,23
2023-05-09T10:01:02.804Z,24
2023-05-09T10:03:34.949Z,16
2023-05-09T10:06:05.635Z,16
2023-05-09T10:08:36.374Z,16
2023-05-09T10:11:07.922Z,16
2023-05-09T10:13:39.156Z,16
2023-05-09T10:16:10.243Z,12
2023-05-09T10:18:40.961Z,15
2023-05-09T10:21:11.536Z,12
2023-05-09T10:23:45.630Z,16
2023-05-09T10:26:19.199Z,16
2023-05-09T10:28:49.669Z,16
2023-05-09T10:31:20.667Z,16
2023-05-09T10:33:50.954Z,15
2023-05-09T10:36:23.362Z,12
2023-05-09T10:38:53.486Z,16
2023-05-09T10:41:24.210Z,16
2023-05-09T10:43:54.541Z,16
2023-05-09T10:46:29.111Z,16
2023-05-09T10:49:02.914Z,16
2023-05-09T10:51:33.049Z,12
2023-05-09T10:54:03.898Z,17
2023-05-09T10:56:34.558Z,16
2023-05-09T10:59:04.958Z,16
2023-05-09T11:01:35.700Z,16
2023-05-09T11:04:06.704Z,17
2023-05-09T11:06:37.529Z,13
2023-05-09T11:09:08.010Z,16
2023-05-09T11:11:38.732Z,16
2023-05-09T11:14:12.606Z,16
2023-05-09T11:16:44.453Z,15
2023-05-09T11:19:16.029Z,15
2023-05-09T11:21:47.369Z,16
2023-05-09T11:24:17.696Z,11
2023-05-09T11:26:48.416Z,12
2023-05-09T11:29:22.716Z,12
2023-05-09T11:31:53.329Z,12
2023-05-09T11:34:30.260Z,12
2023-05-09T11:37:03.553Z,12
2023-05-09T11:39:33.896Z,8
2023-05-09T11:42:04.066Z,8
2023-05-09T11:44:43.519Z,8
2023-05-09T11:47:13.851Z,12
2023-05-09T11:49:44.215Z,9
2023-05-09T11:52:14.623Z,9
2023-05-09T11:54:44.732Z,9
2023-05-09T11:57:15.247Z,8
2023-05-09T11:59:45.813Z,8
2023-05-09T12:02:20.623Z,8
2023-05-09T12:04:50.987Z,8
2023-05-09T12:07:22.772Z,8
2023-05-09T12:09:53.257Z,9
2023-05-09T12:12:27.493Z,8
2023-05-09T12:14:59.799Z,8
2023-05-09T12:17:31.894Z,8
2023-05-09T12:20:03.426Z,8
2023-05-09T12:22:33.571Z,11
2023-05-09T12:25:09.375Z,8
2023-05-09T12:27:42.687Z,8
2023-05-09T12:30:13.422Z,8
2023-05-09T12:32:43.878Z,10
2023-05-09T12:35:14.974Z,12
2023-05-09T12:37:47.266Z,8
2023-05-09T12:40:19.642Z,8
2023-05-09T12:42:50.128Z,8
2023-05-09T12:45:23.327Z,8
2023-05-09T12:48:02.825Z,8
2023-05-09T12:50:42.144Z,8
2023-05-09T12:53:13.583Z,5
2023-05-09T12:55:43.897Z,8
2023-05-09T12:58:17.825Z,8
2023-05-09T13:00:48.670Z,7
2023-05-09T13:03:19.275Z,5
2023-05-09T13:05:53.430Z,8
2023-05-09T13:08:23.638Z,4
2023-05-09T13:11:01.019Z,8
2023-05-09T13:13:24.601Z,7
2023-05-09T13:15:57.677Z,8
2023-05-09T13:18:29.069Z,4
2023-05-09T13:20:59.441Z,4
2023-05-09T13:23:30.900Z,8
2023-05-09T13:26:01.704Z,8
2023-05-09T13:28:31.741Z,8
2023-05-09T13:31:02.396Z,7
2023-05-09T13:33:32.523Z,7
2023-05-09T13:36:04.085Z,4
2023-05-09T13:38:37.265Z,7
2023-05-09T13:41:07.560Z,4
2023-05-09T13:43:37.889Z,9
2023-05-09T13:46:08.547Z,8
2023-05-09T13:48:39.631Z,8
2023-05-09T13:51:12.381Z,13
2023-05-09T13:53:42.916Z,12
2023-05-09T13:56:18.488Z,8
2023-05-09T13:58:49.245Z,8
2023-05-09T14:01:20.012Z,8
2023-05-09T14:03:50.588Z,7
2023-05-09T14:06:22.265Z,4
2023-05-09T14:08:56.612Z,6
2023-05-09T14:11:27.009Z,4
2023-05-09T14:13:58.025Z,4
2023-05-09T14:16:28.365Z,4
2023-05-09T14:18:58.913Z,4
2023-05-09T14:21:32.341Z,7
2023-05-09T14:24:02.932Z,4
2023-05-09T14:26:33.174Z,10
2023-05-09T14:29:03.540Z,8
2023-05-09T14:31:34.180Z,6
2023-05-09T14:34:04.224Z,8
2023-05-09T14:36:34.676Z,8
2023-05-09T14:39:04.764Z,12
2023-05-09T14:41:35.168Z,7
2023-05-09T14:44:09.266Z,8
2023-05-09T14:49:16.412Z,12
2023-05-09T14:51:46.895Z,4
2023-05-09T14:54:18.447Z,4
2023-05-09T14:56:47.624Z,8
2023-05-09T14:59:17.870Z,4
2023-05-09T15:01:48.478Z,4
2023-05-09T15:04:22.236Z,5
2023-05-09T15:06:52.989Z,5
2023-05-09T15:09:23.803Z,5
2023-05-09T15:11:58.399Z,4
2023-05-09T15:14:37.790Z,4
2023-05-09T15:17:09.087Z,4
2023-05-09T15:19:51.758Z,4
2023-05-09T15:22:21.779Z,4
2023-05-09T15:24:52.656Z,4
2023-05-09T15:27:23.366Z,4
2023-05-09T15:30:00.243Z,4
2023-05-09T15:32:31.710Z,4
2023-05-09T15:35:01.927Z,4
2023-05-09T15:37:33.754Z,4
2023-05-09T15:40:04.140Z,4
2023-05-09T15:42:34.614Z,4
2023-05-09T15:45:05.061Z,4
2023-05-09T15:47:36.268Z,4
2023-05-09T15:50:09.674Z,4
2023-05-09T15:52:39.786Z,0
2023-05-09T15:55:10.344Z,4
2023-05-09T15:57:40.307Z,4
2023-05-09T16:00:14.411Z,0
2023-05-09T16:02:44.923Z,0
2023-05-09T16:05:18.738Z,4
2023-05-09T16:10:24.509Z,0
2023-05-09T16:12:55.458Z,0
2023-05-09T16:15:29.010Z,0
2023-05-09T16:17:59.606Z,3
2023-05-09T16:20:32.236Z,3
2023-05-09T16:23:02.465Z,4
2023-05-09T16:25:35.633Z,0
2023-05-09T16:28:05.963Z,0
2023-05-09T16:30:36.873Z,5
2023-05-09T16:33:07.054Z,4
2023-05-09T16:35:37.933Z,4
2023-05-09T16:38:08.275Z,1
2023-05-09T16:40:38.723Z,4
2023-05-09T16:43:10.132Z,1
2023-05-09T16:45:40.802Z,4
2023-05-09T16:48:11.490Z,4
2023-05-09T16:50:41.854Z,5
2023-05-09T16:53:12.063Z,4
2023-05-09T16:55:42.678Z,16
2023-05-09T16:58:12.983Z,8
2023-05-09T17:00:44.285Z,8
2023-05-09T17:03:15.776Z,4
2023-05-09T17:05:46.336Z,4
2023-05-09T17:08:18.860Z,4
2023-05-09T17:11:01.332Z,4
2023-05-09T17:13:36.373Z,8
2023-05-09T17:16:09.779Z,4
2023-05-09T17:18:41.212Z,8
2023-05-09T17:21:13.328Z,5
2023-05-09T17:23:47.022Z,4
2023-05-09T17:26:20.255Z,4
2023-05-09T17:28:50.679Z,4
2023-05-09T17:31:20.970Z,4
2023-05-09T17:33:51.080Z,8
2023-05-09T17:36:23.400Z,8
2023-05-09T17:39:02.264Z,4
2023-05-09T17:41:32.950Z,4
2023-05-09T17:44:03.629Z,6
2023-05-09T17:46:34.011Z,8
2023-05-09T17:49:04.744Z,6
2023-05-09T17:51:37.421Z,4
2023-05-09T17:54:07.522Z,12
2023-05-09T17:56:40.322Z,4
2023-05-09T17:59:11.162Z,4
2023-05-09T18:01:41.304Z,4
2023-05-09T18:04:11.470Z,4
2023-05-09T18:06:52.057Z,4
2023-05-09T18:09:21.991Z,4
2023-05-09T18:11:52.311Z,8
2023-05-09T18:14:22.718Z,4
2023-05-09T18:16:53.354Z,4
2023-05-09T18:19:24.739Z,6
2023-05-09T18:21:55.446Z,5
2023-05-09T18:24:25.846Z,5
2023-05-09T18:26:56.242Z,4
2023-05-09T18:29:26.929Z,8
2023-05-09T18:31:57.337Z,4
2023-05-09T18:34:27.447Z,12
2023-05-09T18:36:58.096Z,8
2023-05-09T18:39:28.555Z,8
2023-05-09T18:42:00.145Z,12
2023-05-09T18:44:31.229Z,12
2023-05-09T18:47:03.281Z,12
2023-05-09T18:49:33.573Z,8
2023-05-09T18:52:03.305Z,8
2023-05-09T18:54:33.289Z,8
2023-05-09T18:57:06.033Z,8
2023-05-09T18:59:38.255Z,8
2023-05-09T19:02:08.556Z,12
2023-05-09T19:04:41.191Z,8
2023-05-09T19:07:11.498Z,12
2023-05-09T19:09:41.678Z,11
2023-05-09T19:12:11.887Z,8
2023-05-09T19:14:43.145Z,12
2023-05-09T19:17:13.064Z,12
2023-05-09T19:19:43.183Z,13
2023-05-09T19:22:13.844Z,13
2023-05-09T19:24:43.588Z,13
2023-05-09T19:27:13.788Z,19
2023-05-09T19:29:44.149Z,12
2023-05-09T19:32:15.588Z,12
2023-05-09T19:34:46.139Z,17
2023-05-09T19:37:31.105Z,12
2023-05-09T19:40:03.484Z,16
2023-05-09T19:42:35.331Z,12
2023-05-09T19:45:05.938Z,12
2023-05-09T19:47:36.514Z,12
2023-05-09T19:50:06.798Z,12
2023-05-09T19:52:41.463Z,12
2023-05-09T19:55:15.436Z,12
2023-05-09T19:57:47.607Z,13
2023-05-09T20:00:18.260Z,12
2023-05-09T20:02:48.646Z,12
2023-05-09T20:05:19.127Z,12
2023-05-09T20:07:49.956Z,12
2023-05-09T20:10:20.992Z,15
2023-05-09T20:12:53.375Z,12
2023-05-09T20:15:24.165Z,12
2023-05-09T20:17:54.629Z,12
2023-05-09T20:20:25.932Z,12
2023-05-09T20:22:55.882Z,12
2023-05-09T20:25:25.921Z,11
2023-05-09T20:27:57.621Z,14
2023-05-09T20:30:27.321Z,16
2023-05-09T20:32:57.748Z,17
2023-05-09T20:35:27.999Z,16
2023-05-09T20:37:58.140Z,16
2023-05-09T20:40:28.711Z,17
2023-05-09T20:43:01.496Z,16
2023-05-09T20:45:32.521Z,12
2023-05-09T20:48:04.895Z,19
2023-05-09T20:50:38.885Z,16
2023-05-09T20:53:10.948Z,16
2023-05-09T20:55:41.086Z,12
2023-05-09T20:58:10.881Z,12
2023-05-09T21:00:40.857Z,16
2023-05-09T21:03:10.693Z,16
2023-05-09T21:05:42.639Z,17
2023-05-09T21:08:12.459Z,12
2023-05-09T21:10:42.520Z,16
2023-05-09T21:13:12.554Z,19
2023-05-09T21:15:42.916Z,20
2023-05-09T21:18:13.737Z,20
2023-05-09T21:20:45.786Z,21
2023-05-09T21:23:15.833Z,16
2023-05-09T21:25:45.829Z,17
2023-05-09T21:28:15.678Z,20
2023-05-09T21:30:46.654Z,21
2023-05-09T21:33:17.142Z,20
2023-05-09T21:35:46.993Z,23
2023-05-09T21:38:21.184Z,20
2023-05-09T21:40:51.454Z,13
2023-05-09T21:43:22.159Z,16
2023-05-09T21:46:01.690Z,16
2023-05-09T21:48:32.964Z,16
2023-05-09T21:51:03.186Z,16
2023-05-09T21:53:35.504Z,20
2023-05-09T21:56:05.894Z,15
2023-05-09T21:58:36.548Z,16
2023-05-09T22:01:06.886Z,16
2023-05-09T22:03:37.391Z,16
2023-05-09T22:06:08.859Z,17
2023-05-09T22:08:39.019Z,20
2023-05-09T22:11:10.964Z,12
2023-05-09T22:13:40.110Z,16
2023-05-09T22:16:11.317Z,20
2023-05-09T22:18:41.802Z,16
2023-05-09T22:21:15.065Z,15
2023-05-09T22:23:46.969Z,16
2023-05-09T22:26:19.898Z,20
2023-05-09T22:28:51.127Z,20
2023-05-09T22:31:21.532Z,20
2023-05-09T22:33:51.434Z,20
2023-05-09T22:36:21.769Z,16
2023-05-09T22:38:52.149Z,20
2023-05-09T22:41:26.337Z,18
2023-05-09T22:43:57.049Z,16
2023-05-09T22:46:27.905Z,18
2023-05-09T22:48:58.410Z,17
2023-05-09T22:51:28.754Z,20
2023-05-09T22:53:59.251Z,21
2023-05-09T22:56:29.551Z,19
2023-05-09T22:58:59.905Z,18
2023-05-09T23:01:30.393Z,16
2023-05-09T23:04:00.404Z,24
2023-05-09T23:06:31.206Z,20
2023-05-09T23:09:01.660Z,20
2023-05-09T23:11:32.116Z,20
2023-05-09T23:14:03.389Z,16
2023-05-09T23:16:34.332Z,16
2023-05-09T23:19:04.542Z,19
2023-05-09T23:21:35.014Z,24
2023-05-09T23:24:05.986Z,16
2023-05-09T23:26:36.353Z,16
2023-05-09T23:29:06.522Z,20
2023-05-09T23:31:36.551Z,20
2023-05-09T23:34:07.095Z,20
2023-05-09T23:36:37.203Z,16
2023-05-09T23:39:07.884Z,17
2023-05-09T23:41:38.031Z,21
2023-05-09T23:44:08.448Z,23
2023-05-09T23:46:38.673Z,20
2023-05-09T23:49:08.493Z,18
2023-05-09T23:51:38.708Z,16
2023-05-09T23:54:08.910Z,16
2023-05-09T23:56:38.848Z,20
2023-05-09T23:59:09.427Z,20
